Data for 08/15/2008

Time Sea-Level Adjusted Pressure Absolute Pressure Temperature Relative Humidity Dew Point   
(mb) (inHg) (mb) (inHg) (C) (F) (%) (C) (F)
00:05 1026 30.3 855 25.25 16.7 62.1 46 5 41
00:10 1026 30.3 855 25.25 16.5 61.7 48 5.4 41.8
00:15 1026 30.3 855 25.25 16.2 61.1 49 5.6 42.1
00:20 1026 30.3 855 25.25 15.7 60.3 50 5.5 41.9
00:25 1026 30.3 855 25.25 15.7 60.2 51 5.7 42.2
00:30 1026 30.3 855 25.25 15.6 60.1 52 5.8 42.4
00:35 1026 30.3 855 25.25 15.4 59.7 54 6.3 43.3
00:40 1026 30.3 855 25.25 14.9 58.8 55 5.9 42.7
00:45 1026 30.3 855 25.25 14.9 58.9 58 6.7 44.1
00:50 1026 30.3 855 25.25 14.8 58.6 56 6.2 43.1
00:55 1026 30.3 855 25.25 15.1 59.1 54 6 42.9
01:00 1026 30.3 855 25.25 15.2 59.4 58 7 44.6
01:05 1026 30.3 855 25.25 15 59 59 7.1 44.8
01:10 1026 30.3 855 25.25 15 59 53 5.7 42.2
01:15 1026 30.3 855 25.25 15 58.9 53 5.6 42.1
01:20 1026 30.3 855 25.25 14.8 58.7 53 5.5 41.9
01:25 1026 30.3 855 25.25 14.7 58.5 53 5.5 41.8
01:30 1026 30.3 855 25.25 14.7 58.4 56 6 42.9
01:35 1026 30.3 855 25.25 14.7 58.5 54 5.6 42.1
01:40 1026 30.3 855 25.25 14.5 58 55 5.7 42.3
01:45 1026 30.3 855 25.25 14.2 57.5 56 5.6 42.1
01:50 1026 30.3 855 25.25 14.1 57.5 56 5.6 42
01:55 1026 30.3 855 25.25 14.2 57.6 56 5.6 42
02:00 1026 30.3 855 25.25 14.3 57.7 56 5.7 42.2
02:05 1026 30.3 855 25.25 14.1 57.4 57 5.8 42.4
02:10 1026 30.3 855 25.25 13.9 57 58 5.8 42.5
02:15 1026 30.3 855 25.25 13.7 56.7 58 5.8 42.4
02:20 1026 30.3 855 25.25 13.7 56.7 58 5.7 42.3
02:25 1026 30.3 855 25.25 13.7 56.6 59 5.8 42.4
02:30 1026 30.3 855 25.25 13.5 56.3 59 5.7 42.3
02:35 1026 30.3 855 25.25 13.5 56.3 60 5.9 42.5
02:40 1026 30.3 855 25.25 13.4 56.1 60 5.8 42.4
02:45 1026 30.3 855 25.25 13.4 56 61 6 42.8
02:50 1026 30.3 855 25.25 13.1 55.5 62 6 42.8
02:55 1026 30.3 855 25.25 12.7 54.9 64 6.2 43.1
03:00 1026 30.3 855 25.25 12.5 54.5 64 5.9 42.7
03:05 1026 30.3 855 25.25 12.7 54.8 63 5.7 42.3
03:10 1026 30.3 855 25.25 12.6 54.6 64 5.9 42.6
03:15 1026 30.3 855 25.25 12.3 54.2 65 6 42.7
03:20 1026 30.3 855 25.25 12.3 54.1 64 5.7 42.2
03:25 1026 30.3 855 25.25 12.5 54.4 63 5.6 42.2
03:30 1026 30.3 855 25.25 12.6 54.6 63 5.9 42.5
03:35 1026 30.3 855 25.25 12.5 54.5 63 5.8 42.4
03:40 1026 30.3 855 25.25 12.3 54.2 65 6 42.7
03:45 1026 30.3 855 25.25 12 53.6 66 5.8 42.5
03:50 1026 30.3 855 25.25 11.7 53.1 67 5.9 42.6
03:55 1026 30.3 855 25.25 11.6 52.9 67 5.7 42.2
04:00 1026 30.3 855 25.25 11.8 53.2 66 5.6 42.1
04:05 1026 30.3 855 25.25 11.8 53.2 64 5.4 41.6
04:10 1026 30.3 855 25.25 12 53.6 64 5.4 41.6
04:15 1026 30.3 855 25.25 12.3 54.1 63 5.4 41.8
04:20 1026 30.3 855 25.25 11.8 53.2 67 5.8 42.5
04:25 1026 30.3 855 25.25 11.2 52.2 68 5.6 42
04:30 1026 30.3 855 25.25 11 51.8 67 5.2 41.4
04:35 1026 30.3 855 25.25 11.1 52 67 5.2 41.3
04:40 1026 30.3 855 25.25 11.3 52.3 67 5.4 41.7
04:45 1026 30.3 855 25.25 11.3 52.3 67 5.4 41.6
04:50 1026 30.3 855 25.25 11.3 52.3 67 5.3 41.6
04:55 1026 30.3 855 25.25 11.3 52.3 68 5.5 42
05:00 1026 30.3 855 25.25 10.9 51.6 69 5.4 41.7
05:05 1026 30.3 855 25.25 10.9 51.6 68 5.2 41.4
05:10 1026 30.3 855 25.25 11 51.7 68 5.2 41.4
05:15 1026 30.3 855 25.25 10.9 51.6 68 5.3 41.5
05:20 1026 30.3 855 25.25 11 51.7 68 5.3 41.5
05:25 1026 30.3 855 25.25 11.1 52 68 5.4 41.7
05:30 1026 30.3 855 25.25 11.3 52.3 67 5.5 41.9
05:35 1026 30.3 855 25.25 11 51.8 69 5.6 42.1
05:40 1026 30.3 855 25.25 10.6 51 71 5.6 42
05:45 1026 30.3 855 25.25 10.4 50.8 71 5.5 41.8
05:50 1026 30.3 855 25.25 10.3 50.6 71 5.4 41.7
05:55 1026 30.3 855 25.25 9.9 49.7 73 5.2 41.4
06:00 1026 30.3 855 25.25 9.6 49.2 74 5.1 41.2
06:05 1026 30.3 855 25.25 9.4 49 74 5.1 41.2
06:10 1026 30.3 855 25.25 9.5 49.2 74 5.2 41.3
06:15 1026 30.3 855 25.25 9.5 49.1 74 5.1 41.2
06:20 1026 30.3 855 25.25 9.6 49.2 74 5.3 41.5
06:25 1026 30.3 855 25.25 9.8 49.7 74 5.3 41.6
06:30 1026 30.3 855 25.25 10 50 72 5.2 41.4
06:35 1026 30.3 856 25.28 10.4 50.7 71 5.4 41.8
06:40 1026 30.3 856 25.28 10.4 50.7 71 5.4 41.8
06:45 1026 30.3 856 25.28 10.3 50.6 71 5.4 41.6
06:50 1026 30.3 856 25.28 10.2 50.3 71 5.2 41.4
06:55 1026 30.3 856 25.28 10.3 50.6 71 5.4 41.7
07:00 1026 30.3 856 25.28 10.4 50.6 71 5.3 41.5
07:05 1026 30.3 856 25.28 10.8 51.4 69 5.4 41.8
07:10 1026 30.3 856 25.28 10.8 51.4 69 5.4 41.7
07:15 1026 30.3 856 25.28 10.7 51.3 70 5.5 41.9
07:20 1026 30.3 856 25.28 10.5 50.9 71 5.4 41.8
07:25 1027 30.33 856 25.28 10.6 51 71 5.5 41.8
07:30 1027 30.33 856 25.28 10.7 51.2 70 5.5 41.9
07:35 1027 30.33 856 25.28 11 51.9 68 5.4 41.8
07:40 1027 30.33 856 25.28 11.2 52.2 69 5.8 42.4
07:45 1027 30.33 856 25.28 11.4 52.4 68 5.7 42.3
07:50 1027 30.33 856 25.28 11.9 53.4 66 5.8 42.5
07:55 1027 30.33 856 25.28 12.3 54.2 66 6.2 43.1
08:00 1027 30.33 856 25.28 12.6 54.6 65 6.2 43.2
08:05 1027 30.33 856 25.28 12.9 55.2 65 6.4 43.6
08:10 1027 30.33 856 25.28 13.2 55.7 62 6.2 43.2
08:15 1027 30.33 856 25.28 13.8 56.9 62 6.6 43.9
08:20 1027 30.33 856 25.28 14 57.3 61 6.7 44.1
08:25 1027 30.33 856 25.28 13.8 56.9 62 6.7 44.1
08:30 1027 30.33 856 25.28 14.2 57.6 61 6.7 44.1
08:35 1027 30.33 856 25.28 14.4 58 59 6.7 44.1
08:40 1027 30.33 856 25.28 14.8 58.7 59 7 44.5
08:45 1027 30.33 856 25.28 15.5 59.9 56 6.9 44.4
08:50 1027 30.33 856 25.28 15.7 60.2 54 6.4 43.5
08:55 1027 30.33 856 25.28 15.8 60.5 49 5.4 41.6
09:00 1027 30.33 856 25.28 16.4 61.5 48 5.5 41.9
09:05 1027 30.33 856 25.28 16.6 62 48 5.6 42.1
09:10 1027 30.33 856 25.28 16.6 61.9 48 5.6 42.2
09:15 1027 30.33 856 25.28 16.7 62 49 6 42.7
09:20 1027 30.33 856 25.28 16.7 62 46 5.1 41.2
09:25 1027 30.33 856 25.28 17 62.5 46 5.3 41.5
09:30 1027 30.33 856 25.28 17.1 62.7 46 5.4 41.7
09:35 1027 30.33 856 25.28 17 62.5 48 5.9 42.6
09:40 1027 30.33 856 25.28 17.4 63.3 45 5.5 41.9
09:45 1027 30.33 856 25.28 17.1 62.8 45 5.2 41.4
09:50 1027 30.33 856 25.28 17.7 63.9 45 5.8 42.4
09:55 1027 30.33 856 25.28 17.4 63.3 43 4.8 40.6
10:00 1027 30.33 856 25.28 17.5 63.5 43 4.8 40.6
10:05 1027 30.33 856 25.28 17.3 63.2 44 5 41
10:10 1027 30.33 856 25.28 17.6 63.7 44 5.2 41.4
10:15 1027 30.33 856 25.28 17.4 63.4 43 5 40.9
10:20 1027 30.33 856 25.28 17.8 64.1 44 5.7 42.2
10:25 1027 30.33 856 25.28 17.7 63.8 44 5.5 41.9
10:30 1027 30.33 856 25.28 17.1 62.7 46 5.6 42
10:35 1027 30.33 856 25.28 16.6 61.8 47 5.2 41.4
10:40 1027 30.33 856 25.28 16.9 62.4 44 4.6 40.3
10:45 1027 30.33 856 25.28 17.3 63.2 42 4.4 39.9
10:50 1027 30.33 856 25.28 17.7 63.9 40 4.1 39.3
10:55 1027 30.33 856 25.28 17.8 64 41 4.6 40.4
11:00 1027 30.33 856 25.28 17.6 63.7 42 4.6 40.3
11:05 1027 30.33 856 25.28 17.7 63.8 44 5.3 41.5
11:10 1027 30.33 856 25.28 17.7 63.9 44 5.6 42.1
11:15 1027 30.33 856 25.28 18.3 64.9 40 4.4 40
11:20 1027 30.33 856 25.28 18.3 65 41 4.8 40.7
11:25 1027 30.33 856 25.28 18 64.4 41 4.6 40.3
11:30 1027 30.33 856 25.28 18.3 65 40 4.6 40.3
11:35 1027 30.33 856 25.28 18.5 65.3 37 3.6 38.6
11:40 1027 30.33 856 25.28 18.4 65.2 36 3.3 37.9
11:45 1027 30.33 856 25.28 18.4 65 39 4.2 39.6
11:50 1027 30.33 856 25.28 18.2 64.7 39 4 39.2
11:55 1027 30.33 856 25.28 18.8 65.8 37 4 39.1
12:00 1027 30.33 856 25.28 19 66.2 36 3.9 39
12:05 1027 30.33 856 25.28 18.6 65.4 37 3.7 38.6
12:10 1027 30.33 856 25.28 18.7 65.6 35 3.1 37.6
12:15 1027 30.33 856 25.28 18.9 66.1 36 3.8 38.8
12:20 1027 30.33 856 25.28 18.8 65.8 37 3.9 39.1
12:25 1027 30.33 856 25.28 19.1 66.3 37 4 39.2
12:30 1027 30.33 856 25.28 18.8 65.9 38 4.5 40.1
12:35 1027 30.33 856 25.28 18.8 65.8 37 4.1 39.3
12:40 1027 30.33 856 25.28 19.5 67.1 33 3 37.4
12:45 1027 30.33 856 25.28 19.1 66.3 36 3.7 38.6
12:50 1027 30.33 856 25.28 19.2 66.5 34 3.3 37.9
12:55 1027 30.33 856 25.28 19.3 66.8 36 4.1 39.4
13:00 1027 30.33 856 25.28 19.3 66.7 36 3.8 38.8
13:05 1027 30.33 856 25.28 19.3 66.7 33 2.9 37.2
13:10 1027 30.33 856 25.28 19.2 66.5 37 4.2 39.6
13:15 1027 30.33 856 25.28 19.1 66.3 36 3.7 38.6
13:20 1027 30.33 856 25.28 18.9 66.1 38 4.3 39.7
13:25 1027 30.33 856 25.28 19.6 67.2 36 4.4 40
13:30 1027 30.33 856 25.28 19.8 67.7 37 4.8 40.6
13:35 1027 30.33 856 25.28 19.3 66.8 37 4.4 39.9
13:40 1026 30.3 856 25.28 19.2 66.6 38 4.5 40.2
13:45 1026 30.3 856 25.28 19.6 67.3 36 4.1 39.4
13:50 1026 30.3 856 25.28 19.4 67 35 3.8 38.8
13:55 1026 30.3 856 25.28 19.6 67.2 34 3.6 38.5
14:00 1026 30.3 856 25.28 19.5 67.1 33 3.1 37.6
14:05 1026 30.3 855 25.25 19.4 66.9 33 3 37.4
14:10 1026 30.3 855 25.25 19.9 67.8 32 2.9 37.3
14:15 1026 30.3 855 25.25 20 67.9 32 2.9 37.2
14:20 1026 30.3 855 25.25 20.1 68.1 32 3.1 37.6
14:25 1026 30.3 855 25.25 20 68 33 3.2 37.8
14:30 1026 30.3 855 25.25 20.2 68.3 32 3 37.5
14:35 1026 30.3 855 25.25 20.3 68.6 32 3.1 37.6
14:40 1026 30.3 855 25.25 20.5 68.9 32 3.2 37.8
14:45 1026 30.3 855 25.25 20.5 69 32 3.5 38.2
14:50 1026 30.3 855 25.25 20.8 69.4 30 2.8 37.1
14:55 1026 30.3 855 25.25 20.7 69.2 32 3.6 38.4
15:00 1026 30.3 855 25.25 20.7 69.3 31 3.2 37.8
15:05 1026 30.3 855 25.25 21.1 69.9 30 2.8 37
15:10 1026 30.3 855 25.25 21.3 70.3 30 3.1 37.7
15:15 1026 30.3 855 25.25 21.4 70.5 32 4 39.3
15:20 1026 30.3 855 25.25 21.6 70.8 30 3.6 38.5
15:25 1026 30.3 855 25.25 21.7 71.1 30 3.5 38.2
15:30 1026 30.3 855 25.25 21.3 70.3 30 3.2 37.8
15:35 1026 30.3 855 25.25 21.2 70.2 31 3.5 38.3
15:40 1026 30.3 855 25.25 21.3 70.3 29 2.8 37
15:45 1026 30.3 855 25.25 21.7 71 30 3.6 38.4
15:50 1026 30.3 855 25.25 21.5 70.8 28 2.7 36.8
15:55 1026 30.3 855 25.25 21.5 70.7 30 3.5 38.2
16:00 1025 30.27 855 25.25 21.5 70.8 30 3.3 37.9
16:05 1025 30.27 855 25.25 21 69.8 31 3.3 37.9
16:10 1025 30.27 855 25.25 21.2 70.2 31 3.4 38.1
16:15 1025 30.27 855 25.25 21.3 70.4 30 3.4 38.1
16:20 1025 30.27 855 25.25 21.3 70.3 29 2.9 37.2
16:25 1025 30.27 855 25.25 21.3 70.4 30 3.4 38.1
16:30 1025 30.27 855 25.25 21.2 70.1 31 3.6 38.5
16:35 1025 30.27 855 25.25 21.1 69.9 31 3.4 38.2
16:40 1025 30.27 855 25.25 21.2 70.2 30 3.2 37.7
16:45 1025 30.27 855 25.25 21.5 70.7 29 3.1 37.5
16:50 1025 30.27 855 25.25 21.4 70.5 29 2.8 37
16:55 1025 30.27 855 25.25 21.6 70.9 29 3.1 37.5
17:00 1025 30.27 854 25.22 21.7 71.1 29 3.3 37.9
17:05 1025 30.27 854 25.22 21.2 70.2 30 3.1 37.5
17:10 1025 30.27 854 25.22 21.1 70 30 3 37.5
17:15 1025 30.27 854 25.22 21.2 70.1 30 2.9 37.2
17:20 1025 30.27 854 25.22 21.1 70 30 2.8 37.1
17:25 1025 30.27 854 25.22 21.3 70.3 31 3.6 38.4
17:30 1025 30.27 854 25.22 21.5 70.6 30 3.4 38.1
17:35 1025 30.27 854 25.22 21.4 70.5 30 3.4 38
17:40 1025 30.27 854 25.22 21.2 70.2 30 3.2 37.7
17:45 1025 30.27 854 25.22 21 69.8 30 3.1 37.6
17:50 1025 30.27 854 25.22 21.3 70.4 30 3.3 38
17:55 1025 30.27 854 25.22 21.3 70.3 31 3.6 38.6
18:00 1025 30.27 854 25.22 21.2 70.2 31 3.4 38.1
18:05 1025 30.27 854 25.22 21.1 69.9 30 3.1 37.6
18:10 1025 30.27 854 25.22 21.1 69.9 30 3.2 37.8
18:15 1025 30.27 854 25.22 20.7 69.3 31 3.2 37.8
18:20 1025 30.27 854 25.22 20.7 69.2 32 3.3 38
18:25 1025 30.27 854 25.22 20.5 68.9 32 3.5 38.3
18:30 1025 30.27 854 25.22 20.4 68.7 32 3.3 38
18:35 1025 30.27 854 25.22 20.3 68.6 32 3.2 37.8
18:40 1025 30.27 854 25.22 20.4 68.6 32 3.2 37.8
18:45 1025 30.27 854 25.22 20.5 68.8 31 2.9 37.3
18:50 1025 30.27 854 25.22 20.2 68.3 33 3.4 38.1
18:55 1025 30.27 854 25.22 20 68 33 3.2 37.8
19:00 1025 30.27 854 25.22 20 68 32 3.1 37.6
19:05 1025 30.27 854 25.22 19.9 67.9 33 3.2 37.7
19:10 1025 30.27 854 25.22 19.8 67.7 33 3.3 38
19:15 1025 30.27 854 25.22 19.7 67.5 33 3.2 37.8
19:20 1025 30.27 854 25.22 19.6 67.3 34 3.3 37.9
19:25 1025 30.27 854 25.22 19.5 67 33 3 37.5
19:30 1025 30.27 854 25.22 19.4 66.9 34 3.1 37.6
19:35 1025 30.27 854 25.22 19.3 66.8 34 3 37.5
19:40 1025 30.27 854 25.22 19.3 66.7 34 3.3 37.9
19:45 1025 30.27 854 25.22 19.2 66.5 34 2.9 37.3
19:50 1025 30.27 854 25.22 19.1 66.4 34 3 37.4
19:55 1025 30.27 854 25.22 19 66.3 35 3.3 37.9
20:00 1025 30.27 854 25.22 18.9 66.1 36 3.6 38.5
20:05 1025 30.27 854 25.22 18.8 65.9 36 3.7 38.6
20:10 1025 30.27 854 25.22 18.7 65.6 37 3.8 38.9
20:15 1025 30.27 854 25.22 18.5 65.2 38 3.9 39.1
20:20 1025 30.27 854 25.22 18.3 64.9 38 4 39.3
20:25 1025 30.27 854 25.22 18.2 64.8 39 4 39.2
20:30 1025 30.27 854 25.22 18.1 64.6 39 3.9 39
20:35 1025 30.27 854 25.22 17.9 64.3 39 3.9 39.1
20:40 1025 30.27 854 25.22 17.9 64.2 39 3.7 38.7
20:45 1025 30.27 854 25.22 17.8 64 40 4 39.2
20:50 1025 30.27 854 25.22 17.6 63.6 40 4 39.2
20:55 1025 30.27 854 25.22 17.4 63.4 41 4.1 39.3
21:00 1025 30.27 854 25.22 17.2 62.9 42 4.2 39.6
21:05 1025 30.27 854 25.22 17.1 62.7 41 3.9 39
21:10 1025 30.27 854 25.22 17.1 62.9 41 3.9 39
21:15 1025 30.27 854 25.22 17.2 62.9 41 3.8 38.9
21:20 1025 30.27 854 25.22 17.1 62.8 41 4 39.3
21:25 1025 30.27 854 25.22 17 62.6 41 3.9 39
21:30 1025 30.27 854 25.22 17 62.5 42 4 39.1
21:35 1025 30.27 854 25.22 16.8 62.2 42 4 39.2
21:40 1025 30.27 854 25.22 16.7 62 43 4.1 39.3
21:45 1025 30.27 854 25.22 16.5 61.8 43 4 39.2
21:50 1025 30.27 854 25.22 16.5 61.7 43 4 39.2
21:55 1025 30.27 854 25.22 16.5 61.8 43 4 39.3
22:00 1025 30.27 854 25.22 16.5 61.6 43 4 39.3
22:05 1025 30.27 854 25.22 16.4 61.6 43 4.1 39.3
22:10 1025 30.27 854 25.22 16.4 61.5 43 3.9 39.1
22:15 1025 30.27 854 25.22 16.4 61.5 43 3.9 39.1
22:20 1025 30.27 854 25.22 16.4 61.6 43 3.9 39.1
22:25 1025 30.27 855 25.25 16.4 61.4 44 4 39.3
22:30 1025 30.27 855 25.25 16.2 61.2 44 4.1 39.3
22:35 1025 30.27 855 25.25 16.2 61.1 44 4 39.2
22:40 1025 30.27 854 25.22 16.1 61 45 4.1 39.4
22:45 1025 30.27 854 25.22 16 60.8 45 4.1 39.4
22:50 1025 30.27 854 25.22 15.9 60.6 45 4.1 39.4
22:55 1025 30.27 854 25.22 15.8 60.5 45 4.1 39.5
23:00 1025 30.27 854 25.22 15.8 60.4 45 4 39.3
23:05 1025 30.27 854 25.22 15.7 60.3 46 4.2 39.6
23:10 1025 30.27 854 25.22 15.6 60 46 4.2 39.5
23:15 1025 30.27 854 25.22 15.6 60 46 4.2 39.5
23:20 1025 30.27 854 25.22 15.5 60 46 4 39.3
23:25 1025 30.27 854 25.22 15.6 60.1 46 4.1 39.3
23:30 1025 30.27 854 25.22 15.5 60 46 4.1 39.5
23:35 1025 30.27 854 25.22 15.5 59.8 46 4 39.1
23:40 1025 30.27 854 25.22 15.6 60.1 45 3.9 39
23:45 1025 30.27 854 25.22 15.6 60.1 46 4.1 39.3
23:50 1025 30.27 854 25.22 15.5 59.8 46 4.1 39.4
23:55 1025 30.27 854 25.22 15.3 59.6 47 4.1 39.4
24:00 1025 30.27 854 25.22 15.2 59.3 47 4.1 39.3